Terminal Aerodrome Forecast
Issued by NWS

Home | Current Version | Previous Version | Text Only | Print | Product List | Glossary On
Versions: 1 2 3 4 5 6 7 8 9 10 11 12 13 14 15 16 17 18 19 20 21 22 23 24 25 26 27 28 29 30 31 32 33 34 35 36 37 38 39 40 41 42 43 44 45 46 47 48 49
902
FTUS43 KLOT 141739
TAFGYY
TAF
KGYY 141739Z 1418/1518 14014G20KT 6SM -SN OVC050
     FM141830 14014G20KT 1SM -SN OVC012
      TEMPO 1419/1421 1/2SM SN BLSN OVC009
     FM142100 15013G19KT 2SM -SN BR OVC010
     FM150200 16010KT 6SM -SN BR OVC008
     FM151200 20007KT P6SM OVC010=

USA.gov is the U.S. government's official web portal to all federal, state and local government web resources and services.